Thursday, November 23, 2017, 7:29 AM GMT
Back to Local

CXKT, Kentville , N. S.

Location: , , Canada Lat: 45.067
Local Time: 7:29 AM GMT ( 7:29 GMT) Lon: -64.483
Time Zone: GMT Elev: 160 ft

Show me the last for .
Show Coded

Time T Td Feel RH Dir Speed Gust Alt SLP Vis Weather Sky Remarks
2017-11-23 07:00 42 41 31 96 300° 15 29 - 29.30 0 Peak wind: 33 mph (29 kts) from 290° at 34 min
Pressure rising rapidly
1-hr Precip Total: 0.09"
2017-11-23 06:00 55 54 - 95 270° 3 - - 29.24 0 Pressure falling rapidly
1-hr Precip Total: 0.21"
2017-11-23 05:00 56 54 - 95 160° 7 - - 29.31 0 Peak wind: 20 mph (18 kts) from 170° at 25 min
Pressure falling rapidly
1-hr Precip Total: 0.36"
2017-11-23 04:00 56 53 - 89 140° 6 17 - 29.41 0 Peak wind: 27 mph (24 kts) from 140° at 42 min
Pressure falling rapidly
1-hr Precip Total: 0.28"
2017-11-23 03:00 56 54 - 94 150° 6 - - 29.49 0 Pressure falling rapidly
1-hr Precip Total: 0.18"
2017-11-23 02:00 56 54 - 94 140° 5 - - 29.58 0 Pressure falling rapidly
1-hr Precip Total: 0.11"
2017-11-23 01:00 56 54 - 93 160° 5 - - 29.66 0 1-hr Precip Total: 0.21"
2017-11-23 00:00 56 54 - 91 150° 7 - - 29.70 0 1-hr Precip Total: 0.01"
2017-11-22 23:00 56 52 - 86 140° 5 - - 29.75 0 None
2017-11-22 22:00 55 51 - 87 130° 3 - - 29.80 0 None
2017-11-22 21:00 55 49 - 79 140° 7 - - 29.85 0 None
2017-11-22 20:00 56 51 - 82 140° 2 - - 29.89 0 None
2017-11-22 19:00 57 50 - 75 160° 6 - - 29.93 0 None
2017-11-22 18:00 59 49 - 70 180° 3 - - 29.96 0 None
2017-11-22 17:00 58 49 - 70 240° 6 - - 29.98 0 None
2017-11-22 16:00 56 47 - 72 210° 7 - - 30.01 0 None
2017-11-22 15:00 54 46 - 75 210° 6 - - 30.05 0 None
2017-11-22 14:00 51 46 - 81 210° 6 - - 30.06 0 None
2017-11-22 13:00 45 44 - 97 220° 1 - - 30.06 0 None
2017-11-22 12:00 42 41 - 97 - Calm - - 30.06 0 None
2017-11-22 11:00 42 41 - 96 240° 1 - - 30.06 0 None
2017-11-22 10:00 43 42 41 95 220° 3 - - 30.05 0 None
2017-11-22 09:00 41 40 - 94 330° 1 - - 30.05 0 None
2017-11-22 08:00 44 42 - 92 210° 2 - - 30.05 0 None

Support USWX by starting your Amazon purchase here.